sensor_id;sensor_type;location;lat;lon;timestamp;P1;durP1;ratioP1;P2;durP2;ratioP2
23242;SDS011;11790;49.578;11.214;2023-11-21T00:00:37;4.07;;;1.63;;
23242;SDS011;11790;49.578;11.214;2023-11-21T00:05:37;2.85;;;1.10;;
23242;SDS011;11790;49.578;11.214;2023-11-21T00:10:37;3.17;;;1.00;;
23242;SDS011;11790;49.578;11.214;2023-11-21T00:15:38;3.83;;;1.23;;
23242;SDS011;11790;49.578;11.214;2023-11-21T00:20:38;2.85;;;0.98;;
23242;SDS011;11790;49.578;11.214;2023-11-21T00:25:39;5.80;;;1.48;;
23242;SDS011;11790;49.578;11.214;2023-11-21T00:30:40;3.30;;;0.90;;
23242;SDS011;11790;49.578;11.214;2023-11-21T00:35:40;3.28;;;1.10;;
23242;SDS011;11790;49.578;11.214;2023-11-21T00:40:40;4.00;;;1.00;;
23242;SDS011;11790;49.578;11.214;2023-11-21T00:45:40;3.42;;;1.00;;
23242;SDS011;11790;49.578;11.214;2023-11-21T00:50:40;5.18;;;1.08;;
23242;SDS011;11790;49.578;11.214;2023-11-21T00:55:41;3.92;;;1.20;;
23242;SDS011;11790;49.578;11.214;2023-11-21T01:00:41;4.03;;;1.10;;
23242;SDS011;11790;49.578;11.214;2023-11-21T01:05:41;1.92;;;0.88;;
23242;SDS011;11790;49.578;11.214;2023-11-21T01:10:41;3.20;;;1.65;;
23242;SDS011;11790;49.578;11.214;2023-11-21T01:15:41;3.17;;;1.35;;
23242;SDS011;11790;49.578;11.214;2023-11-21T01:20:42;3.17;;;1.20;;
23242;SDS011;11790;49.578;11.214;2023-11-21T01:25:42;4.60;;;1.10;;
23242;SDS011;11790;49.578;11.214;2023-11-21T01:30:42;3.95;;;1.30;;
23242;SDS011;11790;49.578;11.214;2023-11-21T01:35:42;6.43;;;1.60;;
23242;SDS011;11790;49.578;11.214;2023-11-21T01:40:43;3.65;;;1.70;;
23242;SDS011;11790;49.578;11.214;2023-11-21T01:45:43;2.47;;;1.33;;
23242;SDS011;11790;49.578;11.214;2023-11-21T01:50:45;1.90;;;1.33;;
23242;SDS011;11790;49.578;11.214;2023-11-21T01:55:45;4.22;;;1.70;;
23242;SDS011;11790;49.578;11.214;2023-11-21T02:00:46;5.55;;;2.15;;
23242;SDS011;11790;49.578;11.214;2023-11-21T02:05:46;4.95;;;2.00;;
23242;SDS011;11790;49.578;11.214;2023-11-21T02:10:47;4.30;;;1.85;;
23242;SDS011;11790;49.578;11.214;2023-11-21T02:15:47;3.80;;;1.60;;
23242;SDS011;11790;49.578;11.214;2023-11-21T02:20:49;2.70;;;1.80;;
23242;SDS011;11790;49.578;11.214;2023-11-21T02:25:50;2.47;;;1.67;;
23242;SDS011;11790;49.578;11.214;2023-11-21T02:30:50;3.10;;;1.60;;
23242;SDS011;11790;49.578;11.214;2023-11-21T02:35:55;3.42;;;1.50;;
23242;SDS011;11790;49.578;11.214;2023-11-21T02:40:57;2.78;;;1.65;;
23242;SDS011;11790;49.578;11.214;2023-11-21T02:45:58;3.67;;;1.38;;
23242;SDS011;11790;49.578;11.214;2023-11-21T02:50:58;4.13;;;1.52;;
23242;SDS011;11790;49.578;11.214;2023-11-21T02:55:58;6.43;;;1.70;;
23242;SDS011;11790;49.578;11.214;2023-11-21T03:00:58;4.38;;;1.73;;
23242;SDS011;11790;49.578;11.214;2023-11-21T03:05:58;6.47;;;1.95;;
23242;SDS011;11790;49.578;11.214;2023-11-21T03:10:58;5.22;;;1.60;;
23242;SDS011;11790;49.578;11.214;2023-11-21T03:15:59;7.22;;;2.45;;
23242;SDS011;11790;49.578;11.214;2023-11-21T03:20:59;5.93;;;2.50;;
23242;SDS011;11790;49.578;11.214;2023-11-21T03:25:59;4.53;;;2.53;;
23242;SDS011;11790;49.578;11.214;2023-11-21T03:31:00;5.78;;;2.42;;
23242;SDS011;11790;49.578;11.214;2023-11-21T03:36:00;6.07;;;2.47;;
23242;SDS011;11790;49.578;11.214;2023-11-21T03:41:00;3.47;;;2.05;;
23242;SDS011;11790;49.578;11.214;2023-11-21T03:46:00;2.72;;;1.65;;
23242;SDS011;11790;49.578;11.214;2023-11-21T03:51:00;3.45;;;1.70;;
23242;SDS011;11790;49.578;11.214;2023-11-21T03:56:02;3.80;;;1.75;;
23242;SDS011;11790;49.578;11.214;2023-11-21T04:01:02;3.63;;;1.70;;
23242;SDS011;11790;49.578;11.214;2023-11-21T04:06:02;3.90;;;2.40;;
23242;SDS011;11790;49.578;11.214;2023-11-21T04:11:03;5.27;;;2.10;;
23242;SDS011;11790;49.578;11.214;2023-11-21T04:16:05;8.55;;;2.00;;
23242;SDS011;11790;49.578;11.214;2023-11-21T04:21:05;3.60;;;1.98;;
23242;SDS011;11790;49.578;11.214;2023-11-21T04:26:05;5.35;;;2.95;;
23242;SDS011;11790;49.578;11.214;2023-11-21T04:31:06;4.32;;;2.78;;
23242;SDS011;11790;49.578;11.214;2023-11-21T04:36:07;3.75;;;2.60;;
23242;SDS011;11790;49.578;11.214;2023-11-21T04:41:07;3.30;;;2.63;;
23242;SDS011;11790;49.578;11.214;2023-11-21T04:46:07;4.00;;;2.65;;
23242;SDS011;11790;49.578;11.214;2023-11-21T04:51:07;5.75;;;3.33;;
23242;SDS011;11790;49.578;11.214;2023-11-21T04:56:08;5.22;;;3.22;;
23242;SDS011;11790;49.578;11.214;2023-11-21T05:01:08;7.68;;;3.20;;
23242;SDS011;11790;49.578;11.214;2023-11-21T05:06:11;6.32;;;3.40;;
23242;SDS011;11790;49.578;11.214;2023-11-21T05:11:12;8.50;;;3.38;;
23242;SDS011;11790;49.578;11.214;2023-11-21T05:16:12;7.20;;;3.70;;
23242;SDS011;11790;49.578;11.214;2023-11-21T05:21:12;7.75;;;3.97;;
23242;SDS011;11790;49.578;11.214;2023-11-21T05:26:12;8.82;;;4.95;;
23242;SDS011;11790;49.578;11.214;2023-11-21T05:31:13;6.88;;;5.03;;
23242;SDS011;11790;49.578;11.214;2023-11-21T05:36:13;11.73;;;5.07;;
23242;SDS011;11790;49.578;11.214;2023-11-21T05:41:13;8.95;;;4.72;;
23242;SDS011;11790;49.578;11.214;2023-11-21T05:46:13;11.25;;;5.10;;
23242;SDS011;11790;49.578;11.214;2023-11-21T05:51:14;7.22;;;5.30;;
23242;SDS011;11790;49.578;11.214;2023-11-21T05:56:14;6.95;;;4.60;;
23242;SDS011;11790;49.578;11.214;2023-11-21T06:01:15;8.52;;;4.93;;
23242;SDS011;11790;49.578;11.214;2023-11-21T06:06:15;8.90;;;4.80;;
23242;SDS011;11790;49.578;11.214;2023-11-21T06:11:15;12.10;;;6.45;;
23242;SDS011;11790;49.578;11.214;2023-11-21T06:16:16;14.35;;;7.18;;
23242;SDS011;11790;49.578;11.214;2023-11-21T06:21:18;9.40;;;5.97;;
23242;SDS011;11790;49.578;11.214;2023-11-21T06:26:19;10.05;;;5.95;;
23242;SDS011;11790;49.578;11.214;2023-11-21T06:31:20;10.30;;;6.00;;
23242;SDS011;11790;49.578;11.214;2023-11-21T06:36:21;12.70;;;6.25;;
23242;SDS011;11790;49.578;11.214;2023-11-21T06:41:22;11.13;;;6.43;;
23242;SDS011;11790;49.578;11.214;2023-11-21T06:46:22;12.77;;;7.30;;
23242;SDS011;11790;49.578;11.214;2023-11-21T06:51:22;13.13;;;6.90;;
23242;SDS011;11790;49.578;11.214;2023-11-21T06:56:22;15.70;;;7.15;;
23242;SDS011;11790;49.578;11.214;2023-11-21T07:01:23;13.52;;;8.52;;
23242;SDS011;11790;49.578;11.214;2023-11-21T07:06:23;11.80;;;7.70;;
23242;SDS011;11790;49.578;11.214;2023-11-21T07:11:23;13.90;;;7.47;;
23242;SDS011;11790;49.578;11.214;2023-11-21T07:16:23;12.30;;;7.60;;
23242;SDS011;11790;49.578;11.214;2023-11-21T07:21:24;17.05;;;8.15;;
23242;SDS011;11790;49.578;11.214;2023-11-21T07:26:24;10.52;;;7.38;;
23242;SDS011;11790;49.578;11.214;2023-11-21T07:31:26;15.57;;;8.13;;
23242;SDS011;11790;49.578;11.214;2023-11-21T07:36:26;17.02;;;8.38;;
23242;SDS011;11790;49.578;11.214;2023-11-21T07:41:26;16.75;;;11.05;;
23242;SDS011;11790;49.578;11.214;2023-11-21T07:46:27;18.63;;;10.77;;
23242;SDS011;11790;49.578;11.214;2023-11-21T07:51:27;15.85;;;9.68;;
23242;SDS011;11790;49.578;11.214;2023-11-21T07:56:27;18.05;;;8.88;;
23242;SDS011;11790;49.578;11.214;2023-11-21T08:01:27;15.45;;;8.70;;
23242;SDS011;11790;49.578;11.214;2023-11-21T08:06:28;13.73;;;8.20;;
23242;SDS011;11790;49.578;11.214;2023-11-21T08:11:28;11.65;;;7.18;;
23242;SDS011;11790;49.578;11.214;2023-11-21T08:16:31;14.35;;;8.05;;
23242;SDS011;11790;49.578;11.214;2023-11-21T08:21:32;16.00;;;8.45;;
23242;SDS011;11790;49.578;11.214;2023-11-21T08:26:32;16.23;;;8.40;;
23242;SDS011;11790;49.578;11.214;2023-11-21T08:31:32;14.70;;;8.80;;
23242;SDS011;11790;49.578;11.214;2023-11-21T08:36:33;13.32;;;8.27;;
23242;SDS011;11790;49.578;11.214;2023-11-21T08:41:33;10.30;;;7.28;;
23242;SDS011;11790;49.578;11.214;2023-11-21T08:46:33;13.63;;;7.82;;
23242;SDS011;11790;49.578;11.214;2023-11-21T08:51:34;12.30;;;7.78;;
23242;SDS011;11790;49.578;11.214;2023-11-21T08:56:34;14.00;;;8.52;;
23242;SDS011;11790;49.578;11.214;2023-11-21T09:01:35;15.20;;;8.00;;
23242;SDS011;11790;49.578;11.214;2023-11-21T09:06:35;13.57;;;7.75;;
23242;SDS011;11790;49.578;11.214;2023-11-21T09:11:36;13.10;;;7.57;;
23242;SDS011;11790;49.578;11.214;2023-11-21T09:16:36;13.75;;;8.20;;
23242;SDS011;11790;49.578;11.214;2023-11-21T09:21:36;11.88;;;7.07;;
23242;SDS011;11790;49.578;11.214;2023-11-21T09:26:36;12.48;;;6.22;;
23242;SDS011;11790;49.578;11.214;2023-11-21T09:31:37;11.05;;;6.57;;
23242;SDS011;11790;49.578;11.214;2023-11-21T09:36:38;10.10;;;6.10;;
23242;SDS011;11790;49.578;11.214;2023-11-21T09:41:52;9.55;;;5.80;;
23242;SDS011;11790;49.578;11.214;2023-11-21T09:46:55;10.40;;;5.93;;
23242;SDS011;11790;49.578;11.214;2023-11-21T09:51:59;9.43;;;6.55;;
23242;SDS011;11790;49.578;11.214;2023-11-21T09:57:03;8.60;;;6.60;;
23242;SDS011;11790;49.578;11.214;2023-11-21T10:02:04;7.90;;;5.75;;
23242;SDS011;11790;49.578;11.214;2023-11-21T10:07:04;7.18;;;5.47;;
23242;SDS011;11790;49.578;11.214;2023-11-21T10:12:08;5.95;;;4.63;;
23242;SDS011;11790;49.578;11.214;2023-11-21T10:17:13;8.00;;;5.03;;
23242;SDS011;11790;49.578;11.214;2023-11-21T10:22:16;8.20;;;5.20;;
23242;SDS011;11790;49.578;11.214;2023-11-21T10:27:17;6.95;;;4.38;;
23242;SDS011;11790;49.578;11.214;2023-11-21T10:32:17;5.47;;;4.18;;
23242;SDS011;11790;49.578;11.214;2023-11-21T10:37:17;5.60;;;3.75;;
23242;SDS011;11790;49.578;11.214;2023-11-21T10:42:17;6.57;;;3.47;;
23242;SDS011;11790;49.578;11.214;2023-11-21T10:47:17;7.68;;;3.65;;
23242;SDS011;11790;49.578;11.214;2023-11-21T10:52:19;5.38;;;3.60;;
23242;SDS011;11790;49.578;11.214;2023-11-21T10:57:19;7.33;;;4.23;;
23242;SDS011;11790;49.578;11.214;2023-11-21T11:02:25;5.60;;;3.47;;
23242;SDS011;11790;49.578;11.214;2023-11-21T11:07:27;5.93;;;4.00;;
23242;SDS011;11790;49.578;11.214;2023-11-21T11:12:28;5.35;;;3.28;;
23242;SDS011;11790;49.578;11.214;2023-11-21T11:17:28;4.57;;;2.85;;
23242;SDS011;11790;49.578;11.214;2023-11-21T11:22:32;4.20;;;2.50;;
23242;SDS011;11790;49.578;11.214;2023-11-21T11:27:40;4.15;;;2.45;;
23242;SDS011;11790;49.578;11.214;2023-11-21T11:38:07;5.88;;;2.25;;
23242;SDS011;11790;49.578;11.214;2023-11-21T11:43:08;3.25;;;1.98;;
23242;SDS011;11790;49.578;11.214;2023-11-21T11:48:10;4.93;;;2.07;;
23242;SDS011;11790;49.578;11.214;2023-11-21T11:53:14;3.40;;;2.17;;
23242;SDS011;11790;49.578;11.214;2023-11-21T11:58:15;6.57;;;2.05;;
23242;SDS011;11790;49.578;11.214;2023-11-21T12:03:17;4.32;;;1.90;;
23242;SDS011;11790;49.578;11.214;2023-11-21T12:08:17;3.10;;;2.10;;
23242;SDS011;11790;49.578;11.214;2023-11-21T12:13:19;4.00;;;2.35;;
23242;SDS011;11790;49.578;11.214;2023-11-21T12:18:20;4.80;;;2.42;;
23242;SDS011;11790;49.578;11.214;2023-11-21T12:23:21;10.45;;;3.75;;
23242;SDS011;11790;49.578;11.214;2023-11-21T12:28:21;7.72;;;2.50;;
23242;SDS011;11790;49.578;11.214;2023-11-21T12:33:23;6.75;;;2.63;;
23242;SDS011;11790;49.578;11.214;2023-11-21T12:38:23;5.17;;;2.70;;
23242;SDS011;11790;49.578;11.214;2023-11-21T12:43:24;3.72;;;2.85;;
23242;SDS011;11790;49.578;11.214;2023-11-21T12:48:24;3.35;;;2.53;;
23242;SDS011;11790;49.578;11.214;2023-11-21T12:53:25;4.30;;;2.38;;
23242;SDS011;11790;49.578;11.214;2023-11-21T12:58:25;5.57;;;2.15;;
23242;SDS011;11790;49.578;11.214;2023-11-21T13:03:25;8.35;;;2.28;;
23242;SDS011;11790;49.578;11.214;2023-11-21T13:08:26;2.88;;;1.75;;
23242;SDS011;11790;49.578;11.214;2023-11-21T13:13:28;4.65;;;2.08;;
23242;SDS011;11790;49.578;11.214;2023-11-21T13:18:29;4.63;;;1.83;;
23242;SDS011;11790;49.578;11.214;2023-11-21T13:23:34;5.70;;;2.40;;
23242;SDS011;11790;49.578;11.214;2023-11-21T13:28:34;3.13;;;2.00;;
23242;SDS011;11790;49.578;11.214;2023-11-21T13:33:35;2.00;;;1.50;;
23242;SDS011;11790;49.578;11.214;2023-11-21T13:38:38;4.03;;;1.45;;
23242;SDS011;11790;49.578;11.214;2023-11-21T13:43:42;2.00;;;1.15;;
23242;SDS011;11790;49.578;11.214;2023-11-21T13:48:48;4.43;;;1.20;;
23242;SDS011;11790;49.578;11.214;2023-11-21T13:53:55;2.58;;;1.20;;
23242;SDS011;11790;49.578;11.214;2023-11-21T13:58:56;5.95;;;1.60;;
23242;SDS011;11790;49.578;11.214;2023-11-21T14:03:56;1.85;;;1.33;;
23242;SDS011;11790;49.578;11.214;2023-11-21T14:09:02;7.22;;;1.70;;
23242;SDS011;11790;49.578;11.214;2023-11-21T14:14:07;9.05;;;2.00;;
23242;SDS011;11790;49.578;11.214;2023-11-21T14:19:09;4.93;;;1.60;;
23242;SDS011;11790;49.578;11.214;2023-11-21T14:24:15;4.75;;;1.90;;
23242;SDS011;11790;49.578;11.214;2023-11-21T14:29:18;7.55;;;2.20;;
23242;SDS011;11790;49.578;11.214;2023-11-21T14:34:23;3.40;;;2.40;;
23242;SDS011;11790;49.578;11.214;2023-11-21T14:39:23;5.55;;;2.30;;
23242;SDS011;11790;49.578;11.214;2023-11-21T14:44:26;5.90;;;2.47;;
23242;SDS011;11790;49.578;11.214;2023-11-21T14:49:29;12.43;;;3.30;;
23242;SDS011;11790;49.578;11.214;2023-11-21T14:54:38;7.28;;;3.42;;
23242;SDS011;11790;49.578;11.214;2023-11-21T14:59:46;4.97;;;2.38;;
23242;SDS011;11790;49.578;11.214;2023-11-21T15:04:49;8.98;;;2.90;;
23242;SDS011;11790;49.578;11.214;2023-11-21T15:09:52;8.02;;;2.88;;
23242;SDS011;11790;49.578;11.214;2023-11-21T15:14:53;5.35;;;2.70;;
23242;SDS011;11790;49.578;11.214;2023-11-21T15:19:55;4.53;;;2.65;;
23242;SDS011;11790;49.578;11.214;2023-11-21T15:24:55;4.40;;;2.67;;
23242;SDS011;11790;49.578;11.214;2023-11-21T15:29:57;5.00;;;2.80;;
23242;SDS011;11790;49.578;11.214;2023-11-21T15:34:57;4.35;;;2.55;;
23242;SDS011;11790;49.578;11.214;2023-11-21T15:39:58;7.78;;;3.20;;
23242;SDS011;11790;49.578;11.214;2023-11-21T15:44:58;8.10;;;3.10;;
23242;SDS011;11790;49.578;11.214;2023-11-21T15:49:59;7.28;;;3.13;;
23242;SDS011;11790;49.578;11.214;2023-11-21T15:54:59;6.03;;;3.23;;
23242;SDS011;11790;49.578;11.214;2023-11-21T15:59:59;7.82;;;3.22;;
23242;SDS011;11790;49.578;11.214;2023-11-21T16:05:00;6.30;;;3.50;;
23242;SDS011;11790;49.578;11.214;2023-11-21T16:10:00;8.80;;;3.77;;
23242;SDS011;11790;49.578;11.214;2023-11-21T16:15:00;5.53;;;3.80;;
23242;SDS011;11790;49.578;11.214;2023-11-21T16:20:08;7.60;;;3.97;;
23242;SDS011;11790;49.578;11.214;2023-11-21T16:25:14;8.63;;;3.80;;
23242;SDS011;11790;49.578;11.214;2023-11-21T16:30:14;6.40;;;3.63;;
23242;SDS011;11790;49.578;11.214;2023-11-21T16:35:14;7.47;;;3.60;;
23242;SDS011;11790;49.578;11.214;2023-11-21T16:40:14;10.35;;;3.60;;
23242;SDS011;11790;49.578;11.214;2023-11-21T16:45:15;11.27;;;3.90;;
23242;SDS011;11790;49.578;11.214;2023-11-21T16:50:16;8.43;;;4.15;;
23242;SDS011;11790;49.578;11.214;2023-11-21T16:55:16;7.65;;;4.20;;
23242;SDS011;11790;49.578;11.214;2023-11-21T17:00:17;16.15;;;4.13;;
23242;SDS011;11790;49.578;11.214;2023-11-21T17:05:18;12.30;;;3.67;;
23242;SDS011;11790;49.578;11.214;2023-11-21T17:10:19;7.97;;;3.70;;
23242;SDS011;11790;49.578;11.214;2023-11-21T17:15:21;12.18;;;4.22;;
23242;SDS011;11790;49.578;11.214;2023-11-21T17:20:22;9.90;;;3.92;;
23242;SDS011;11790;49.578;11.214;2023-11-21T17:25:22;11.40;;;5.23;;
23242;SDS011;11790;49.578;11.214;2023-11-21T17:30:22;9.00;;;4.30;;
23242;SDS011;11790;49.578;11.214;2023-11-21T17:35:23;12.15;;;4.22;;
23242;SDS011;11790;49.578;11.214;2023-11-21T17:40:23;9.48;;;3.70;;
23242;SDS011;11790;49.578;11.214;2023-11-21T17:45:26;7.97;;;3.63;;
23242;SDS011;11790;49.578;11.214;2023-11-21T17:50:26;7.93;;;3.90;;
23242;SDS011;11790;49.578;11.214;2023-11-21T17:55:26;7.30;;;3.42;;
23242;SDS011;11790;49.578;11.214;2023-11-21T18:00:26;7.82;;;4.18;;
23242;SDS011;11790;49.578;11.214;2023-11-21T18:05:27;12.10;;;3.60;;
23242;SDS011;11790;49.578;11.214;2023-11-21T18:10:27;11.45;;;4.20;;
23242;SDS011;11790;49.578;11.214;2023-11-21T18:15:27;8.85;;;3.78;;
23242;SDS011;11790;49.578;11.214;2023-11-21T18:20:27;10.45;;;4.05;;
23242;SDS011;11790;49.578;11.214;2023-11-21T18:25:28;19.35;;;4.60;;
23242;SDS011;11790;49.578;11.214;2023-11-21T18:30:28;9.57;;;3.95;;
23242;SDS011;11790;49.578;11.214;2023-11-21T18:35:29;8.27;;;3.90;;
23242;SDS011;11790;49.578;11.214;2023-11-21T18:40:30;9.27;;;4.55;;
23242;SDS011;11790;49.578;11.214;2023-11-21T18:45:30;13.60;;;3.70;;
23242;SDS011;11790;49.578;11.214;2023-11-21T18:50:31;16.80;;;4.57;;
23242;SDS011;11790;49.578;11.214;2023-11-21T18:55:31;9.45;;;5.05;;
23242;SDS011;11790;49.578;11.214;2023-11-21T19:00:31;29.70;;;17.98;;
23242;SDS011;11790;49.578;11.214;2023-11-21T19:05:32;8.80;;;5.50;;
23242;SDS011;11790;49.578;11.214;2023-11-21T19:10:33;7.38;;;3.33;;
23242;SDS011;11790;49.578;11.214;2023-11-21T19:15:33;7.40;;;3.90;;
23242;SDS011;11790;49.578;11.214;2023-11-21T19:20:33;3.90;;;2.67;;
23242;SDS011;11790;49.578;11.214;2023-11-21T19:25:33;2.90;;;2.53;;
23242;SDS011;11790;49.578;11.214;2023-11-21T19:30:34;3.38;;;2.22;;
23242;SDS011;11790;49.578;11.214;2023-11-21T19:35:36;7.60;;;4.28;;
23242;SDS011;11790;49.578;11.214;2023-11-21T19:40:38;6.20;;;3.72;;
23242;SDS011;11790;49.578;11.214;2023-11-21T19:45:40;2.95;;;2.03;;
23242;SDS011;11790;49.578;11.214;2023-11-21T19:50:40;4.78;;;2.30;;
23242;SDS011;11790;49.578;11.214;2023-11-21T19:55:40;2.88;;;2.17;;
23242;SDS011;11790;49.578;11.214;2023-11-21T20:00:40;3.63;;;2.20;;
23242;SDS011;11790;49.578;11.214;2023-11-21T20:05:40;3.97;;;2.63;;
23242;SDS011;11790;49.578;11.214;2023-11-21T20:10:41;3.92;;;2.70;;
23242;SDS011;11790;49.578;11.214;2023-11-21T20:15:42;5.88;;;3.60;;
23242;SDS011;11790;49.578;11.214;2023-11-21T20:20:43;7.68;;;5.03;;
23242;SDS011;11790;49.578;11.214;2023-11-21T20:25:43;6.68;;;5.13;;
23242;SDS011;11790;49.578;11.214;2023-11-21T20:30:43;5.90;;;4.20;;
23242;SDS011;11790;49.578;11.214;2023-11-21T20:35:44;6.95;;;4.95;;
23242;SDS011;11790;49.578;11.214;2023-11-21T20:40:47;5.75;;;4.50;;
23242;SDS011;11790;49.578;11.214;2023-11-21T20:45:47;6.83;;;4.67;;
23242;SDS011;11790;49.578;11.214;2023-11-21T20:50:47;6.50;;;3.97;;
23242;SDS011;11790;49.578;11.214;2023-11-21T20:55:47;5.80;;;4.13;;
23242;SDS011;11790;49.578;11.214;2023-11-21T21:00:49;6.13;;;4.55;;
23242;SDS011;11790;49.578;11.214;2023-11-21T21:05:49;14.82;;;10.88;;
23242;SDS011;11790;49.578;11.214;2023-11-21T21:10:50;6.72;;;4.82;;
23242;SDS011;11790;49.578;11.214;2023-11-21T21:15:50;7.10;;;5.55;;
23242;SDS011;11790;49.578;11.214;2023-11-21T21:20:50;6.25;;;4.00;;
23242;SDS011;11790;49.578;11.214;2023-11-21T21:25:50;7.00;;;4.07;;
23242;SDS011;11790;49.578;11.214;2023-11-21T21:30:53;6.63;;;4.10;;
23242;SDS011;11790;49.578;11.214;2023-11-21T21:35:53;6.28;;;3.72;;
23242;SDS011;11790;49.578;11.214;2023-11-21T21:40:53;5.93;;;4.30;;
23242;SDS011;11790;49.578;11.214;2023-11-21T21:45:55;5.85;;;4.28;;
23242;SDS011;11790;49.578;11.214;2023-11-21T21:50:55;6.32;;;4.47;;
23242;SDS011;11790;49.578;11.214;2023-11-21T21:55:56;7.10;;;4.78;;
23242;SDS011;11790;49.578;11.214;2023-11-21T22:00:56;7.53;;;5.18;;
23242;SDS011;11790;49.578;11.214;2023-11-21T22:05:56;8.05;;;4.70;;
23242;SDS011;11790;49.578;11.214;2023-11-21T22:10:57;7.28;;;4.78;;
23242;SDS011;11790;49.578;11.214;2023-11-21T22:15:58;6.03;;;4.35;;
23242;SDS011;11790;49.578;11.214;2023-11-21T22:20:58;6.77;;;4.33;;
23242;SDS011;11790;49.578;11.214;2023-11-21T22:25:58;6.93;;;4.68;;
23242;SDS011;11790;49.578;11.214;2023-11-21T22:30:59;7.72;;;4.68;;
23242;SDS011;11790;49.578;11.214;2023-11-21T22:35:59;8.45;;;4.95;;
23242;SDS011;11790;49.578;11.214;2023-11-21T22:40:59;7.55;;;5.05;;
23242;SDS011;11790;49.578;11.214;2023-11-21T22:46:01;7.70;;;5.38;;
23242;SDS011;11790;49.578;11.214;2023-11-21T22:51:01;9.73;;;5.80;;
23242;SDS011;11790;49.578;11.214;2023-11-21T22:56:02;14.43;;;6.65;;
23242;SDS011;11790;49.578;11.214;2023-11-21T23:01:02;13.05;;;7.65;;
23242;SDS011;11790;49.578;11.214;2023-11-21T23:06:02;14.70;;;8.05;;
23242;SDS011;11790;49.578;11.214;2023-11-21T23:11:03;13.50;;;8.07;;
23242;SDS011;11790;49.578;11.214;2023-11-21T23:16:04;12.98;;;7.68;;
23242;SDS011;11790;49.578;11.214;2023-11-21T23:21:05;12.77;;;7.75;;
23242;SDS011;11790;49.578;11.214;2023-11-21T23:26:06;12.18;;;7.97;;
23242;SDS011;11790;49.578;11.214;2023-11-21T23:31:06;10.85;;;6.63;;
23242;SDS011;11790;49.578;11.214;2023-11-21T23:36:08;10.68;;;6.38;;
23242;SDS011;11790;49.578;11.214;2023-11-21T23:41:08;8.27;;;5.40;;
23242;SDS011;11790;49.578;11.214;2023-11-21T23:46:09;8.85;;;5.35;;
23242;SDS011;11790;49.578;11.214;2023-11-21T23:51:10;7.63;;;4.50;;
23242;SDS011;11790;49.578;11.214;2023-11-21T23:56:11;7.53;;;5.05;;
